createdAt,value
2023-05-08T00:01:32.601Z,87.84
2023-05-08T00:03:59.961Z,87.79
2023-05-08T00:06:27.953Z,88.78
2023-05-08T00:08:57.838Z,91.24
2023-05-08T00:11:25.052Z,93.68
2023-05-08T00:16:35.917Z,90.25
2023-05-08T00:19:03.233Z,88.94
2023-05-08T00:21:31.429Z,89.15
2023-05-08T00:24:16.314Z,88.72
2023-05-08T00:26:44.447Z,87.05
2023-05-08T00:29:11.836Z,87.09
2023-05-08T00:31:39.784Z,88.14
2023-05-08T00:34:06.641Z,87.47
2023-05-08T00:36:33.987Z,87.08
2023-05-08T00:39:01.005Z,86.05
2023-05-08T00:41:27.801Z,84.92
2023-05-08T00:43:55.732Z,84.97
2023-05-08T00:46:28.723Z,87.35
2023-05-08T00:48:55.859Z,89.72
2023-05-08T00:51:23.381Z,91.01
2023-05-08T00:53:50.766Z,90.76
2023-05-08T00:59:02.450Z,92.10
2023-05-08T01:01:37.435Z,91.18
2023-05-08T01:04:07.093Z,90.01
2023-05-08T01:06:40.531Z,90.22
2023-05-08T01:09:08.369Z,90.86
2023-05-08T01:11:44.633Z,93.66
2023-05-08T01:14:20.284Z,94.06
2023-05-08T01:17:01.327Z,94.99
2023-05-08T01:19:58.194Z,93.40
2023-05-08T01:22:33.972Z,95.24
2023-05-08T01:25:22.384Z,96.99
2023-05-08T01:28:26.425Z,95.71
2023-05-08T01:31:16.044Z,92.32
2023-05-08T01:34:01.320Z,94.15
2023-05-08T01:36:50.532Z,93.24
2023-05-08T01:39:55.960Z,97.06
2023-05-08T01:43:00.578Z,92.48
2023-05-08T01:45:32.993Z,94.14
2023-05-08T01:48:08.337Z,92.79
2023-05-08T01:53:38.059Z,94.34
2023-05-08T01:56:11.463Z,97.59
2023-05-08T01:58:42.418Z,100.00
2023-05-08T02:01:11.879Z,100.00
2023-05-08T02:03:50.902Z,100.00
2023-05-08T02:06:21.463Z,100.00
2023-05-08T02:08:50.033Z,100.00
2023-05-08T02:11:18.791Z,100.00
2023-05-08T02:13:51.173Z,100.00
2023-05-08T02:16:19.182Z,100.00
2023-05-08T02:18:52.511Z,100.00
2023-05-08T02:21:29.992Z,100.00
2023-05-08T02:23:58.293Z,100.00
2023-05-08T02:29:09.083Z,98.12
2023-05-08T02:31:37.547Z,100.00
2023-05-08T02:34:05.450Z,100.00
2023-05-08T02:36:36.106Z,100.00
2023-05-08T02:39:03.641Z,100.00
2023-05-08T02:41:33.723Z,100.00
2023-05-08T02:44:01.046Z,100.00
2023-05-08T02:46:49.053Z,100.00
2023-05-08T02:49:19.329Z,100.00
2023-05-08T02:52:18.531Z,100.00
2023-05-08T02:55:03.856Z,100.00
2023-05-08T02:57:43.888Z,100.00
2023-05-08T03:00:14.095Z,100.00
2023-05-08T03:02:44.701Z,100.00
2023-05-08T03:05:19.442Z,100.00
2023-05-08T03:07:50.555Z,100.00
2023-05-08T03:10:19.299Z,100.00
2023-05-08T03:12:58.642Z,100.00
2023-05-08T03:15:39.662Z,100.00
2023-05-08T03:26:21.541Z,100.00
2023-05-08T03:28:53.805Z,100.00
2023-05-08T03:31:22.716Z,100.00
2023-05-08T03:33:53.561Z,100.00
2023-05-08T03:36:24.552Z,100.00
2023-05-08T03:38:51.411Z,100.00
2023-05-08T03:41:18.265Z,100.00
2023-05-08T03:43:46.510Z,100.00
2023-05-08T03:54:11.696Z,100.00
2023-05-08T03:56:38.609Z,100.00
2023-05-08T03:59:13.353Z,100.00
2023-05-08T04:01:46.292Z,100.00
2023-05-08T04:04:39.052Z,100.00
2023-05-08T04:07:35.176Z,100.00
2023-05-08T04:10:26.110Z,100.00
2023-05-08T04:13:14.598Z,100.00
2023-05-08T04:16:05.019Z,100.00
2023-05-08T04:18:36.874Z,100.00
2023-05-08T04:21:08.931Z,100.00
2023-05-08T04:23:37.642Z,100.00
2023-05-08T04:26:06.751Z,100.00
2023-05-08T04:28:35.303Z,100.00
2023-05-08T04:31:04.167Z,100.00
2023-05-08T04:33:31.383Z,100.00
2023-05-08T04:36:05.215Z,100.00
2023-05-08T04:38:36.079Z,100.00
2023-05-08T04:41:02.903Z,100.00
2023-05-08T04:43:29.884Z,100.00
2023-05-08T04:45:56.755Z,99.42
2023-05-08T04:48:23.390Z,97.02
2023-05-08T04:50:52.488Z,94.34
2023-05-08T04:53:31.386Z,93.36
2023-05-08T04:56:04.564Z,91.28
2023-05-08T04:58:31.475Z,91.05
2023-05-08T05:01:02.534Z,98.62
2023-05-08T05:03:29.513Z,100.00
2023-05-08T05:06:04.820Z,99.95
2023-05-08T05:08:31.672Z,97.55
2023-05-08T05:10:58.477Z,100.00
2023-05-08T05:13:43.876Z,100.00
2023-05-08T05:16:21.056Z,100.00
2023-05-08T05:18:50.397Z,98.14
2023-05-08T05:21:17.315Z,98.35
2023-05-08T05:23:53.182Z,95.96
2023-05-08T05:26:21.800Z,93.77
2023-05-08T05:28:49.122Z,91.20
2023-05-08T05:31:16.242Z,95.04
2023-05-08T05:33:43.256Z,97.66
2023-05-08T05:36:10.167Z,92.02
2023-05-08T05:38:37.017Z,89.64
2023-05-08T05:41:03.892Z,90.42
2023-05-08T05:43:39.519Z,91.66
2023-05-08T05:46:07.814Z,88.87
2023-05-08T05:48:34.681Z,84.06
2023-05-08T05:51:05.850Z,81.18
2023-05-08T05:53:40.860Z,79.93
2023-05-08T05:58:52.020Z,88.57
2023-05-08T06:01:19.085Z,84.68
2023-05-08T06:03:46.208Z,85.85
2023-05-08T06:06:13.418Z,85.81
2023-05-08T06:08:53.751Z,87.21
2023-05-08T06:11:22.857Z,86.34
2023-05-08T06:13:50.689Z,81.54
2023-05-08T06:16:17.645Z,78.67
2023-05-08T06:21:39.929Z,87.67
2023-05-08T06:24:07.908Z,87.30
2023-05-08T06:26:37.187Z,87.92
2023-05-08T06:29:04.708Z,89.25
2023-05-08T06:31:31.758Z,87.66
2023-05-08T06:33:59.019Z,77.56
2023-05-08T06:36:27.424Z,73.92
2023-05-08T06:38:57.511Z,70.45
2023-05-08T06:41:38.040Z,70.00
2023-05-08T06:44:04.899Z,70.66
2023-05-08T06:46:31.659Z,66.93
2023-05-08T06:48:58.596Z,69.47
2023-05-08T06:51:27.681Z,64.22
2023-05-08T06:53:54.567Z,60.19
2023-05-08T06:56:22.860Z,61.67
2023-05-08T06:58:57.103Z,60.00
2023-05-08T07:01:32.834Z,58.38
2023-05-08T07:03:59.671Z,59.65
2023-05-08T07:06:27.742Z,58.62
2023-05-08T07:08:55.877Z,56.47
2023-05-08T07:11:22.724Z,59.16
2023-05-08T07:13:52.521Z,57.38
2023-05-08T07:16:19.408Z,54.74
2023-05-08T07:18:46.176Z,53.42
2023-05-08T07:21:13.354Z,54.60
2023-05-08T07:23:40.238Z,56.02
2023-05-08T07:26:08.358Z,54.24
2023-05-08T07:28:35.634Z,53.35
2023-05-08T07:31:07.520Z,52.08
2023-05-08T07:33:34.802Z,53.87
2023-05-08T07:36:02.016Z,52.78
2023-05-08T07:38:29.150Z,53.85
2023-05-08T07:40:57.635Z,52.38
2023-05-08T07:43:24.560Z,50.92
2023-05-08T07:45:51.539Z,52.52
2023-05-08T07:50:59.190Z,49.53
2023-05-08T07:53:26.225Z,52.39
2023-05-08T07:55:53.100Z,50.95
2023-05-08T07:58:21.593Z,50.10
2023-05-08T08:00:49.442Z,51.61
2023-05-08T08:03:16.295Z,48.06
2023-05-08T08:05:43.246Z,48.39
2023-05-08T08:08:10.163Z,49.15
2023-05-08T08:10:37.026Z,48.09
2023-05-08T08:13:04.220Z,50.39
2023-05-08T08:15:31.320Z,47.73
2023-05-08T08:17:58.186Z,48.24
2023-05-08T08:20:25.334Z,47.80
2023-05-08T08:22:52.068Z,47.47
2023-05-08T08:25:21.226Z,47.92
2023-05-08T08:27:48.318Z,46.90
2023-05-08T08:30:17.554Z,46.56
2023-05-08T08:32:46.195Z,44.53
2023-05-08T08:35:13.939Z,43.63
2023-05-08T08:37:41.096Z,43.96
2023-05-08T08:40:08.502Z,45.89
2023-05-08T08:42:35.685Z,45.24
2023-05-08T08:45:02.697Z,44.24
2023-05-08T08:47:34.957Z,43.05
2023-05-08T08:50:04.090Z,42.81
2023-05-08T08:52:39.016Z,43.34
2023-05-08T08:55:10.304Z,43.41
2023-05-08T08:57:43.800Z,42.53
2023-05-08T09:00:12.406Z,43.86
2023-05-08T09:02:50.077Z,43.25
2023-05-08T09:05:18.237Z,43.25
2023-05-08T09:07:45.340Z,44.24
2023-05-08T09:10:15.613Z,42.33
2023-05-08T09:12:42.946Z,43.11
2023-05-08T09:15:10.019Z,44.80
2023-05-08T09:17:37.038Z,44.22
2023-05-08T09:20:05.580Z,44.62
2023-05-08T09:22:36.013Z,47.10
2023-05-08T09:25:12.523Z,46.61
2023-05-08T09:27:39.779Z,46.35
2023-05-08T09:30:11.753Z,47.18
2023-05-08T09:32:42.398Z,48.09
2023-05-08T09:35:10.524Z,47.31
2023-05-08T09:37:43.957Z,48.17
2023-05-08T09:40:21.973Z,48.64
2023-05-08T09:42:50.697Z,50.12
2023-05-08T09:45:32.018Z,50.49
2023-05-08T09:47:59.538Z,51.63
2023-05-08T09:50:26.955Z,53.39
2023-05-08T09:52:53.708Z,54.17
2023-05-08T09:55:29.793Z,54.06
2023-05-08T09:57:58.646Z,52.87
2023-05-08T10:00:27.425Z,54.31
2023-05-08T10:03:15.525Z,59.68
2023-05-08T10:05:42.910Z,69.63
2023-05-08T10:08:26.753Z,73.07
2023-05-08T10:10:53.961Z,76.90
2023-05-08T10:13:21.791Z,82.19
2023-05-08T10:15:54.835Z,82.23
2023-05-08T10:18:29.258Z,84.48
2023-05-08T10:20:57.780Z,83.98
2023-05-08T10:23:25.656Z,82.06
2023-05-08T10:25:58.948Z,78.47
2023-05-08T10:28:51.356Z,75.95
2023-05-08T10:31:18.993Z,84.26
2023-05-08T10:33:49.076Z,85.33
2023-05-08T10:36:17.120Z,86.31
2023-05-08T10:38:44.949Z,87.43
2023-05-08T10:41:12.749Z,88.26
2023-05-08T10:43:51.247Z,87.80
2023-05-08T10:49:30.528Z,88.88
2023-05-08T10:52:19.042Z,90.37
2023-05-08T10:55:06.488Z,90.43
2023-05-08T10:57:33.236Z,89.04
2023-05-08T11:00:12.757Z,90.08
2023-05-08T11:02:39.838Z,88.81
2023-05-08T11:05:20.815Z,89.83
2023-05-08T11:07:58.483Z,90.23
2023-05-08T11:10:37.333Z,96.49
2023-05-08T11:13:07.636Z,96.02
2023-05-08T11:15:39.088Z,93.65
2023-05-08T11:18:11.562Z,97.79
2023-05-08T11:20:54.762Z,92.63
2023-05-08T11:23:22.914Z,87.16
2023-05-08T11:26:17.899Z,87.57
2023-05-08T11:28:53.807Z,78.08
2023-05-08T11:31:29.727Z,75.37
2023-05-08T11:33:59.692Z,76.45
2023-05-08T11:36:26.784Z,69.00
2023-05-08T11:39:13.434Z,67.59
2023-05-08T11:41:43.800Z,61.05
2023-05-08T11:44:20.781Z,67.86
2023-05-08T11:49:37.677Z,69.16
2023-05-08T11:52:08.810Z,68.22
2023-05-08T11:54:39.298Z,65.38
2023-05-08T11:57:09.352Z,62.17
2023-05-08T11:59:37.207Z,60.85
2023-05-08T12:04:48.240Z,61.33
2023-05-08T12:09:57.518Z,65.50
2023-05-08T12:12:24.557Z,62.86
2023-05-08T12:14:52.454Z,61.59
2023-05-08T12:17:19.964Z,58.68
2023-05-08T12:19:49.946Z,59.47
2023-05-08T12:22:17.010Z,60.63
2023-05-08T12:24:44.477Z,61.72
2023-05-08T12:27:13.222Z,60.81
2023-05-08T12:29:45.184Z,57.94
2023-05-08T12:34:53.152Z,57.71
2023-05-08T12:37:29.749Z,58.25
2023-05-08T12:39:56.723Z,58.59
2023-05-08T12:42:41.411Z,58.74
2023-05-08T12:45:09.015Z,60.02
2023-05-08T12:47:35.881Z,60.79
2023-05-08T12:50:02.927Z,59.50
2023-05-08T12:52:29.735Z,59.52
2023-05-08T12:54:56.538Z,58.75
2023-05-08T12:57:26.194Z,58.30
2023-05-08T13:00:04.994Z,59.33
2023-05-08T13:02:32.415Z,55.83
2023-05-08T13:05:10.629Z,57.69
2023-05-08T13:07:37.908Z,57.31
2023-05-08T13:10:05.274Z,56.06
2023-05-08T13:12:57.220Z,55.91
2023-05-08T13:15:24.228Z,56.26
2023-05-08T13:17:51.605Z,55.37
2023-05-08T13:20:38.693Z,55.83
2023-05-08T13:23:06.248Z,55.64
2023-05-08T13:25:39.497Z,54.61
2023-05-08T13:28:07.478Z,53.24
2023-05-08T13:30:50.152Z,52.34
2023-05-08T13:33:17.242Z,50.89
2023-05-08T13:35:44.204Z,52.33
2023-05-08T13:38:10.926Z,54.46
2023-05-08T13:40:38.846Z,52.16
2023-05-08T13:43:11.428Z,53.40
2023-05-08T13:45:38.333Z,54.21
2023-05-08T13:48:05.856Z,55.25
2023-05-08T13:50:35.698Z,53.48
2023-05-08T13:53:02.540Z,53.82
2023-05-08T13:55:38.923Z,53.85
2023-05-08T13:58:05.728Z,53.42
2023-05-08T14:00:32.474Z,53.54
2023-05-08T14:02:59.290Z,51.76
2023-05-08T14:05:28.507Z,51.28
2023-05-08T14:07:55.349Z,51.45
2023-05-08T14:10:28.129Z,50.67
2023-05-08T14:15:37.279Z,49.80
2023-05-08T14:18:04.533Z,50.18
2023-05-08T14:20:31.320Z,51.76
2023-05-08T14:23:04.652Z,52.34
2023-05-08T14:25:31.517Z,50.90
2023-05-08T14:30:37.559Z,52.49
2023-05-08T14:33:04.757Z,52.29
2023-05-08T14:35:31.585Z,54.38
2023-05-08T14:37:58.491Z,53.34
2023-05-08T14:40:25.524Z,55.24
2023-05-08T14:42:55.277Z,57.17
2023-05-08T14:45:22.878Z,60.17
2023-05-08T14:47:55.398Z,62.57
2023-05-08T14:50:24.310Z,60.70
2023-05-08T14:52:51.259Z,69.05
2023-05-08T14:55:21.253Z,76.75
2023-05-08T14:57:48.559Z,87.67
2023-05-08T15:00:16.863Z,89.84
2023-05-08T15:02:45.069Z,92.49
2023-05-08T15:05:19.150Z,93.61
2023-05-08T15:07:47.208Z,92.32
2023-05-08T15:10:15.872Z,96.69
2023-05-08T15:12:48.076Z,96.60
2023-05-08T15:15:24.610Z,96.85
2023-05-08T15:17:55.783Z,96.20
2023-05-08T15:20:23.236Z,95.40
2023-05-08T15:22:50.082Z,98.85
2023-05-08T15:25:17.422Z,100.00
2023-05-08T15:27:44.341Z,100.00
2023-05-08T15:30:11.855Z,100.00
2023-05-08T15:32:40.445Z,100.00
2023-05-08T15:35:07.539Z,100.00
2023-05-08T15:37:34.250Z,100.00
2023-05-08T15:40:01.095Z,100.00
2023-05-08T15:42:27.884Z,100.00
2023-05-08T15:44:57.948Z,100.00
2023-05-08T15:47:27.393Z,100.00
2023-05-08T15:49:54.786Z,100.00
2023-05-08T15:52:22.875Z,100.00
2023-05-08T15:54:54.987Z,100.00
2023-05-08T15:57:27.262Z,100.00
2023-05-08T15:59:54.334Z,100.00
2023-05-08T16:02:21.251Z,100.00
2023-05-08T16:04:50.914Z,100.00
2023-05-08T16:07:17.981Z,100.00
2023-05-08T16:09:47.930Z,100.00
2023-05-08T16:12:14.950Z,100.00
2023-05-08T16:14:48.956Z,100.00
2023-05-08T16:17:16.071Z,100.00
2023-05-08T16:19:42.866Z,100.00
2023-05-08T16:22:26.844Z,100.00
2023-05-08T16:24:59.930Z,100.00
2023-05-08T16:27:28.803Z,100.00
2023-05-08T16:29:58.511Z,100.00
2023-05-08T16:32:27.362Z,100.00
2023-05-08T16:34:58.302Z,100.00
2023-05-08T16:37:26.276Z,100.00
2023-05-08T16:39:55.785Z,100.00
2023-05-08T16:42:23.926Z,100.00
2023-05-08T16:44:50.882Z,100.00
2023-05-08T16:47:18.382Z,100.00
2023-05-08T16:49:45.484Z,100.00
2023-05-08T16:52:17.549Z,100.00
2023-05-08T16:54:50.015Z,100.00
2023-05-08T16:57:17.277Z,100.00
2023-05-08T16:59:46.752Z,100.00
2023-05-08T17:02:19.866Z,100.00
2023-05-08T17:04:51.494Z,100.00
2023-05-08T17:07:20.158Z,100.00
2023-05-08T17:09:49.404Z,100.00
2023-05-08T17:12:16.154Z,100.00
2023-05-08T17:14:43.027Z,100.00
2023-05-08T17:17:10.000Z,100.00
2023-05-08T17:19:36.916Z,100.00
2023-05-08T17:22:03.645Z,100.00
2023-05-08T17:24:31.408Z,100.00
2023-05-08T17:26:58.952Z,100.00
2023-05-08T17:29:25.999Z,100.00
2023-05-08T17:31:53.070Z,100.00
2023-05-08T17:34:21.067Z,100.00
2023-05-08T17:36:47.917Z,100.00
2023-05-08T17:39:15.060Z,100.00
2023-05-08T17:41:41.962Z,100.00
2023-05-08T17:44:08.979Z,100.00
2023-05-08T17:46:35.946Z,100.00
2023-05-08T17:49:02.735Z,100.00
2023-05-08T17:51:29.695Z,100.00
2023-05-08T17:53:56.930Z,100.00
2023-05-08T17:56:23.970Z,100.00
2023-05-08T17:58:52.587Z,100.00
2023-05-08T18:01:33.848Z,100.00
2023-05-08T18:06:49.836Z,100.00
2023-05-08T18:09:16.793Z,100.00
2023-05-08T18:11:43.699Z,100.00
2023-05-08T18:14:12.186Z,100.00
2023-05-08T18:16:40.747Z,100.00
2023-05-08T18:19:07.552Z,100.00
2023-05-08T18:21:34.322Z,100.00
2023-05-08T18:24:01.154Z,100.00
2023-05-08T18:26:27.980Z,100.00
2023-05-08T18:28:58.025Z,100.00
2023-05-08T18:31:25.433Z,100.00
2023-05-08T18:33:52.316Z,100.00
2023-05-08T18:36:27.669Z,100.00
2023-05-08T18:38:54.563Z,100.00
2023-05-08T18:41:27.346Z,100.00
2023-05-08T18:43:54.303Z,100.00
2023-05-08T18:46:27.310Z,100.00
2023-05-08T18:48:54.151Z,100.00
2023-05-08T18:51:27.457Z,100.00
2023-05-08T18:53:57.262Z,100.00
2023-05-08T18:56:24.366Z,100.00
2023-05-08T18:58:51.168Z,100.00
2023-05-08T19:01:27.102Z,100.00
2023-05-08T19:03:54.532Z,100.00
2023-05-08T19:06:21.480Z,100.00
2023-05-08T19:08:48.618Z,100.00
2023-05-08T19:11:16.048Z,100.00
2023-05-08T19:13:42.762Z,100.00
2023-05-08T19:16:09.688Z,100.00
2023-05-08T19:18:36.776Z,100.00
2023-05-08T19:21:03.831Z,100.00
2023-05-08T19:23:30.947Z,100.00
2023-05-08T19:25:58.528Z,100.00
2023-05-08T19:28:25.462Z,100.00
2023-05-08T19:30:52.769Z,100.00
2023-05-08T19:33:22.268Z,100.00
2023-05-08T19:35:49.156Z,100.00
2023-05-08T19:38:16.141Z,100.00
2023-05-08T19:40:55.450Z,100.00
2023-05-08T19:43:23.969Z,100.00
2023-05-08T19:45:50.941Z,100.00
2023-05-08T19:48:19.633Z,100.00
2023-05-08T19:53:37.592Z,100.00
2023-05-08T19:56:05.110Z,100.00
2023-05-08T19:58:32.024Z,100.00
2023-05-08T20:00:59.346Z,100.00
2023-05-08T20:03:26.785Z,100.00
2023-05-08T20:05:53.887Z,100.00
2023-05-08T20:08:21.090Z,100.00
2023-05-08T20:10:50.669Z,100.00
2023-05-08T20:13:17.884Z,100.00
2023-05-08T20:15:44.859Z,100.00
2023-05-08T20:18:11.961Z,100.00
2023-05-08T20:20:38.855Z,100.00
2023-05-08T20:23:05.784Z,100.00
2023-05-08T20:25:34.745Z,100.00
2023-05-08T20:28:01.806Z,100.00
2023-05-08T20:30:29.889Z,100.00
2023-05-08T20:33:02.416Z,100.00
2023-05-08T20:35:29.504Z,100.00
2023-05-08T20:37:58.887Z,100.00
2023-05-08T20:40:29.524Z,100.00
2023-05-08T20:42:56.587Z,100.00
2023-05-08T20:45:24.272Z,100.00
2023-05-08T20:47:53.708Z,100.00
2023-05-08T20:52:56.889Z,100.00
2023-05-08T20:55:33.325Z,100.00
2023-05-08T20:58:20.209Z,100.00
2023-05-08T21:00:47.521Z,100.00
2023-05-08T21:03:14.882Z,100.00
2023-05-08T21:05:50.955Z,100.00
2023-05-08T21:08:21.741Z,100.00
2023-05-08T21:10:55.263Z,100.00
2023-05-08T21:13:22.777Z,100.00
2023-05-08T21:15:52.677Z,100.00
2023-05-08T21:18:19.897Z,100.00
2023-05-08T21:20:50.483Z,100.00
2023-05-08T21:23:18.722Z,100.00
2023-05-08T21:25:49.531Z,100.00
2023-05-08T21:28:18.162Z,100.00
2023-05-08T21:30:45.708Z,100.00
2023-05-08T21:33:14.170Z,100.00
2023-05-08T21:35:43.900Z,100.00
2023-05-08T21:38:13.947Z,100.00
2023-05-08T21:40:40.920Z,100.00
2023-05-08T21:43:08.106Z,100.00
2023-05-08T21:45:38.705Z,100.00
2023-05-08T21:48:09.439Z,100.00
2023-05-08T21:50:39.181Z,100.00
2023-05-08T21:53:06.564Z,100.00
2023-05-08T21:55:37.561Z,100.00
2023-05-08T21:58:09.157Z,100.00
2023-05-08T22:03:18.719Z,100.00
2023-05-08T22:05:45.768Z,100.00
2023-05-08T22:08:19.630Z,100.00
2023-05-08T22:10:46.673Z,100.00
2023-05-08T22:13:13.883Z,100.00
2023-05-08T22:15:40.807Z,100.00
2023-05-08T22:18:07.998Z,100.00
2023-05-08T22:20:34.936Z,100.00
2023-05-08T22:23:01.801Z,100.00
2023-05-08T22:25:30.054Z,100.00
2023-05-08T22:27:56.874Z,100.00
2023-05-08T22:30:23.926Z,100.00
2023-05-08T22:32:56.236Z,100.00
2023-05-08T22:35:25.426Z,100.00
2023-05-08T22:37:56.116Z,100.00
2023-05-08T22:40:23.606Z,100.00
2023-05-08T22:42:55.926Z,100.00
2023-05-08T22:45:23.418Z,100.00
2023-05-08T22:47:50.639Z,100.00
2023-05-08T22:50:17.568Z,100.00
2023-05-08T22:52:44.538Z,100.00
2023-05-08T22:55:11.882Z,100.00
2023-05-08T22:57:38.978Z,100.00
2023-05-08T23:00:21.898Z,100.00
2023-05-08T23:02:52.010Z,100.00
2023-05-08T23:05:19.017Z,100.00
2023-05-08T23:10:26.789Z,100.00
2023-05-08T23:12:53.796Z,100.00
2023-05-08T23:15:21.340Z,100.00
2023-05-08T23:17:51.692Z,100.00
2023-05-08T23:20:28.771Z,100.00
2023-05-08T23:23:03.426Z,100.00
2023-05-08T23:26:21.768Z,100.00
2023-05-08T23:28:56.505Z,100.00
2023-05-08T23:31:23.857Z,100.00
2023-05-08T23:34:04.339Z,100.00
2023-05-08T23:36:32.521Z,100.00
2023-05-08T23:38:59.663Z,100.00
2023-05-08T23:41:26.428Z,100.00
2023-05-08T23:43:53.294Z,100.00
2023-05-08T23:46:20.355Z,100.00
2023-05-08T23:48:47.232Z,100.00
2023-05-08T23:51:14.187Z,100.00
2023-05-08T23:53:41.462Z,100.00
2023-05-08T23:56:08.261Z,100.00
2023-05-08T23:58:37.840Z,100.00
